createdAt,value
2022-11-03T00:00:04.923Z,993.86
2022-11-03T00:01:03.746Z,993.79
2022-11-03T00:02:03.885Z,993.73
2022-11-03T00:03:04.090Z,993.75
2022-11-03T00:04:03.691Z,993.74
2022-11-03T00:05:03.678Z,993.75
2022-11-03T00:06:03.734Z,993.70
2022-11-03T00:07:03.650Z,993.80
2022-11-03T00:08:03.682Z,993.74
2022-11-03T00:09:03.704Z,993.72
2022-11-03T00:10:03.674Z,993.71
2022-11-03T00:11:03.687Z,993.68
2022-11-03T00:12:03.617Z,993.68
2022-11-03T00:13:03.977Z,993.71
2022-11-03T00:14:03.614Z,993.70
2022-11-03T00:15:03.572Z,993.75
2022-11-03T00:16:03.572Z,993.72
2022-11-03T00:17:03.559Z,993.72
2022-11-03T00:18:03.556Z,993.67
2022-11-03T00:19:03.550Z,993.71
2022-11-03T00:20:03.540Z,993.72
2022-11-03T00:21:03.539Z,993.62
2022-11-03T00:22:03.528Z,993.66
2022-11-03T00:23:03.834Z,993.69
2022-11-03T00:24:03.488Z,993.61
2022-11-03T00:25:03.478Z,993.61
2022-11-03T00:26:03.479Z,993.59
2022-11-03T00:27:03.480Z,993.62
2022-11-03T00:29:04.466Z,993.61
2022-11-03T00:30:03.419Z,993.55
2022-11-03T00:31:03.424Z,993.58
2022-11-03T00:32:03.421Z,993.55
2022-11-03T00:33:03.594Z,993.64
2022-11-03T00:34:03.412Z,993.60
2022-11-03T00:35:03.383Z,993.57
2022-11-03T00:36:03.387Z,993.56
2022-11-03T00:37:03.406Z,993.57
2022-11-03T00:38:03.408Z,993.51
2022-11-03T00:39:03.369Z,993.54
2022-11-03T00:40:03.348Z,993.54
2022-11-03T00:41:03.324Z,993.49
2022-11-03T00:42:03.327Z,993.51
2022-11-03T00:43:03.701Z,993.51
2022-11-03T00:44:03.300Z,993.54
2022-11-03T00:45:03.301Z,993.46
2022-11-03T00:46:03.275Z,993.46
2022-11-03T00:47:03.353Z,993.49
2022-11-03T00:48:03.255Z,993.39
2022-11-03T00:49:03.242Z,993.40
2022-11-03T00:50:03.233Z,993.34
2022-11-03T00:51:03.229Z,993.34
2022-11-03T00:52:03.268Z,993.30
2022-11-03T00:53:03.478Z,993.28
2022-11-03T00:54:03.193Z,993.32
2022-11-03T00:55:03.187Z,993.32
2022-11-03T00:56:03.170Z,993.26
2022-11-03T00:57:03.192Z,993.29
2022-11-03T00:58:03.158Z,993.26
2022-11-03T00:59:03.152Z,993.28
2022-11-03T01:00:03.151Z,993.23
2022-11-03T01:01:03.265Z,993.23
2022-11-03T01:02:03.257Z,993.27
2022-11-03T01:03:03.367Z,993.27
2022-11-03T01:04:03.134Z,993.27
2022-11-03T01:05:03.092Z,993.35
2022-11-03T01:06:03.084Z,993.31
2022-11-03T01:07:03.090Z,993.32
2022-11-03T01:08:03.078Z,993.31
2022-11-03T01:09:03.082Z,993.23
2022-11-03T01:10:03.043Z,993.27
2022-11-03T01:11:03.047Z,993.22
2022-11-03T01:12:03.038Z,993.27
2022-11-03T01:13:03.162Z,993.20
2022-11-03T01:14:03.001Z,993.16
2022-11-03T01:15:04.033Z,993.19
2022-11-03T01:16:02.993Z,993.16
2022-11-03T01:17:02.983Z,993.18
2022-11-03T01:18:03.021Z,993.18
2022-11-03T01:19:02.967Z,993.13
2022-11-03T01:20:02.962Z,993.17
2022-11-03T01:21:02.934Z,993.15
2022-11-03T01:22:06.411Z,993.20
2022-11-03T01:23:03.101Z,993.13
2022-11-03T01:24:02.908Z,993.12
2022-11-03T01:25:02.919Z,993.14
2022-11-03T01:26:02.890Z,993.11
2022-11-03T01:27:02.890Z,993.08
2022-11-03T01:28:05.855Z,993.07
2022-11-03T01:29:02.903Z,993.19
2022-11-03T01:30:02.876Z,993.04
2022-11-03T01:31:02.836Z,992.99
2022-11-03T01:32:02.844Z,993.02
2022-11-03T01:33:02.943Z,993.02
2022-11-03T01:34:02.810Z,992.95
2022-11-03T01:35:02.799Z,992.95
2022-11-03T01:36:02.786Z,992.96
2022-11-03T01:37:02.762Z,992.86
2022-11-03T01:38:02.807Z,992.93
2022-11-03T01:39:03.751Z,992.84
2022-11-03T01:40:02.750Z,992.86
2022-11-03T01:41:02.734Z,992.80
2022-11-03T01:42:02.728Z,992.85
2022-11-03T01:43:02.803Z,992.85
2022-11-03T01:44:02.760Z,992.83
2022-11-03T01:45:02.722Z,992.77
2022-11-03T01:46:02.691Z,992.79
2022-11-03T01:47:02.681Z,992.74
2022-11-03T01:48:02.717Z,992.69
2022-11-03T01:49:02.650Z,992.70
2022-11-03T01:50:03.666Z,992.64
2022-11-03T01:51:02.659Z,992.59
2022-11-03T01:52:02.637Z,992.59
2022-11-03T01:53:02.647Z,992.62
2022-11-03T01:54:02.615Z,992.56
2022-11-03T01:55:02.622Z,992.57
2022-11-03T01:56:02.588Z,992.54
2022-11-03T01:57:02.629Z,992.50
2022-11-03T01:58:02.607Z,992.48
2022-11-03T01:59:02.592Z,992.48
2022-11-03T02:00:02.621Z,992.47
2022-11-03T02:01:02.631Z,992.36
2022-11-03T02:02:02.648Z,992.32
2022-11-03T02:03:02.553Z,992.36
2022-11-03T02:04:02.559Z,992.34
2022-11-03T02:05:02.506Z,992.30
2022-11-03T02:06:02.499Z,992.28
2022-11-03T02:07:02.493Z,992.26
2022-11-03T02:08:02.540Z,992.22
2022-11-03T02:09:02.489Z,992.19
2022-11-03T02:10:02.514Z,992.13
2022-11-03T02:11:02.527Z,992.17
2022-11-03T02:12:02.439Z,992.12
2022-11-03T02:13:02.430Z,992.11
2022-11-03T02:14:02.465Z,992.16
2022-11-03T02:15:02.410Z,992.12
2022-11-03T02:16:02.399Z,992.03
2022-11-03T02:17:02.393Z,992.04
2022-11-03T02:18:02.381Z,992.08
2022-11-03T02:19:02.368Z,992.02
2022-11-03T02:20:02.359Z,992.07
2022-11-03T02:21:02.386Z,992.04
2022-11-03T02:22:02.350Z,992.06
2022-11-03T02:23:02.341Z,992.12
2022-11-03T02:24:02.330Z,992.09
2022-11-03T02:25:02.312Z,992.05
2022-11-03T02:26:02.321Z,992.06
2022-11-03T02:27:02.311Z,992.13
2022-11-03T02:28:02.280Z,992.12
2022-11-03T02:29:34.173Z,992.04
2022-11-03T02:30:02.265Z,992.03
2022-11-03T02:31:02.270Z,992.02
2022-11-03T02:32:02.240Z,992.04
2022-11-03T02:33:02.246Z,992.00
2022-11-03T02:34:02.223Z,992.04
2022-11-03T02:35:02.221Z,992.04
2022-11-03T02:36:02.226Z,992.03
2022-11-03T02:37:02.218Z,992.02
2022-11-03T02:38:02.203Z,992.05
2022-11-03T02:39:02.198Z,992.04
2022-11-03T02:40:02.173Z,992.03
2022-11-03T02:41:02.162Z,991.97
2022-11-03T02:42:02.180Z,991.96
2022-11-03T02:43:02.164Z,992.02
2022-11-03T02:44:02.148Z,992.01
2022-11-03T02:45:02.137Z,992.07
2022-11-03T02:46:02.122Z,992.05
2022-11-03T02:47:02.141Z,992.06
2022-11-03T02:48:02.088Z,992.09
2022-11-03T02:49:02.107Z,992.04
2022-11-03T02:50:02.081Z,992.09
2022-11-03T02:51:02.061Z,992.07
2022-11-03T02:52:02.049Z,992.00
2022-11-03T02:53:02.093Z,991.96
2022-11-03T02:54:02.051Z,992.01
2022-11-03T02:55:02.054Z,991.92
2022-11-03T02:56:02.012Z,992.00
2022-11-03T02:57:02.017Z,991.94
2022-11-03T02:58:02.044Z,992.02
2022-11-03T02:59:01.997Z,991.98
2022-11-03T03:00:01.989Z,991.92
2022-11-03T03:01:02.028Z,991.92
2022-11-03T03:02:02.083Z,991.91
2022-11-03T03:03:01.973Z,991.95
2022-11-03T03:04:01.958Z,991.88
2022-11-03T03:05:01.949Z,991.85
2022-11-03T03:06:01.916Z,991.83
2022-11-03T03:07:01.914Z,991.85
2022-11-03T03:08:01.890Z,991.83
2022-11-03T03:09:01.881Z,991.82
2022-11-03T03:10:01.910Z,991.87
2022-11-03T03:11:01.858Z,991.88
2022-11-03T03:12:01.878Z,991.77
2022-11-03T03:13:01.857Z,991.86
2022-11-03T03:14:01.866Z,991.77
2022-11-03T03:15:01.848Z,991.77
2022-11-03T03:16:01.865Z,991.79
2022-11-03T03:17:01.806Z,991.74
2022-11-03T03:18:01.810Z,991.80
2022-11-03T03:19:01.795Z,991.83
2022-11-03T03:20:01.815Z,991.78
2022-11-03T03:21:01.780Z,991.75
2022-11-03T03:22:01.785Z,991.81
2022-11-03T03:23:05.029Z,991.74
2022-11-03T03:24:01.745Z,991.77
2022-11-03T03:25:01.727Z,991.86
2022-11-03T03:26:01.728Z,991.76
2022-11-03T03:27:01.725Z,991.74
2022-11-03T03:28:01.718Z,991.72
2022-11-03T03:29:01.721Z,991.65
2022-11-03T03:30:01.688Z,991.65
2022-11-03T03:31:01.682Z,991.63
2022-11-03T03:32:01.703Z,991.62
2022-11-03T03:33:01.698Z,991.60
2022-11-03T03:34:04.857Z,991.58
2022-11-03T03:35:02.639Z,991.52
2022-11-03T03:36:01.699Z,991.48
2022-11-03T03:37:01.613Z,991.52
2022-11-03T03:38:01.630Z,991.47
2022-11-03T03:39:01.600Z,991.47
2022-11-03T03:40:01.587Z,991.47
2022-11-03T03:41:03.440Z,991.53
2022-11-03T03:42:01.569Z,991.49
2022-11-03T03:43:01.558Z,991.50
2022-11-03T03:44:01.575Z,991.55
2022-11-03T03:45:01.545Z,991.60
2022-11-03T03:46:01.535Z,991.57
2022-11-03T03:47:01.524Z,991.56
2022-11-03T03:48:01.512Z,991.57
2022-11-03T03:49:01.516Z,991.52
2022-11-03T03:50:01.538Z,991.53
2022-11-03T03:51:01.488Z,991.51
2022-11-03T03:52:01.482Z,991.54
2022-11-03T03:53:01.462Z,991.56
2022-11-03T03:54:01.447Z,991.51
2022-11-03T03:55:01.461Z,991.54
2022-11-03T03:56:01.421Z,991.49
2022-11-03T03:57:01.421Z,991.54
2022-11-03T03:58:01.403Z,991.48
2022-11-03T03:59:01.392Z,991.45
2022-11-03T04:00:01.400Z,991.49
2022-11-03T04:01:01.413Z,991.49
2022-11-03T04:02:01.489Z,991.47
2022-11-03T04:03:01.403Z,991.45
2022-11-03T04:04:01.378Z,991.43
2022-11-03T04:05:02.372Z,991.39
2022-11-03T04:06:01.355Z,991.38
2022-11-03T04:07:01.328Z,991.41
2022-11-03T04:08:01.324Z,991.39
2022-11-03T04:09:01.299Z,991.40
2022-11-03T04:10:01.313Z,991.32
2022-11-03T04:11:01.284Z,991.30
2022-11-03T04:12:01.282Z,991.30
2022-11-03T04:13:01.283Z,991.35
2022-11-03T04:14:01.253Z,991.28
2022-11-03T04:15:01.256Z,991.29
2022-11-03T04:16:01.253Z,991.26
2022-11-03T04:17:01.233Z,991.27
2022-11-03T04:18:01.232Z,991.30
2022-11-03T04:19:01.221Z,991.27
2022-11-03T04:20:01.188Z,991.26
2022-11-03T04:21:01.213Z,991.28
2022-11-03T04:22:01.199Z,991.25
2022-11-03T04:23:01.207Z,991.23
2022-11-03T04:24:01.173Z,991.25
2022-11-03T04:25:01.143Z,991.21
2022-11-03T04:26:01.223Z,991.20
2022-11-03T04:27:01.143Z,991.20
2022-11-03T04:28:01.135Z,991.23
2022-11-03T04:29:01.120Z,991.16
2022-11-03T04:30:01.127Z,991.17
2022-11-03T04:31:01.092Z,991.17
2022-11-03T04:32:01.088Z,991.06
2022-11-03T04:33:01.085Z,991.04
2022-11-03T04:34:01.083Z,991.07
2022-11-03T04:35:01.054Z,990.98
2022-11-03T04:36:01.038Z,991.02
2022-11-03T04:37:01.028Z,990.98
2022-11-03T04:38:01.058Z,990.89
2022-11-03T04:39:01.017Z,990.93
2022-11-03T04:40:01.009Z,990.88
2022-11-03T04:41:00.996Z,990.87
2022-11-03T04:42:01.018Z,990.85
2022-11-03T04:43:01.047Z,990.87
2022-11-03T04:44:00.975Z,990.81
2022-11-03T04:45:00.949Z,990.82
2022-11-03T04:46:00.954Z,990.82
2022-11-03T04:47:00.946Z,990.76
2022-11-03T04:48:00.923Z,990.78
2022-11-03T04:49:00.923Z,990.74
2022-11-03T04:50:00.913Z,990.77
2022-11-03T04:51:00.900Z,990.75
2022-11-03T04:52:00.919Z,990.69
2022-11-03T04:53:00.881Z,990.70
2022-11-03T04:54:00.865Z,990.68
2022-11-03T04:55:00.873Z,990.67
2022-11-03T04:56:06.117Z,990.69
2022-11-03T04:57:02.938Z,990.69
2022-11-03T04:58:00.833Z,990.63
2022-11-03T04:59:00.904Z,990.64
2022-11-03T05:00:00.807Z,990.63
2022-11-03T05:01:00.893Z,990.63
2022-11-03T05:02:00.996Z,990.64
2022-11-03T05:03:00.806Z,990.57
2022-11-03T05:04:00.794Z,990.56
2022-11-03T05:05:00.769Z,990.55
2022-11-03T05:06:00.753Z,990.55
2022-11-03T05:07:00.757Z,990.64
2022-11-03T05:08:00.746Z,990.53
2022-11-03T05:09:00.744Z,990.56
2022-11-03T05:10:00.716Z,990.53
2022-11-03T05:11:00.704Z,990.57
2022-11-03T05:12:00.727Z,990.57
2022-11-03T05:13:00.682Z,990.51
2022-11-03T05:14:00.700Z,990.50
2022-11-03T05:15:00.670Z,990.50
2022-11-03T05:16:00.665Z,990.49
2022-11-03T05:17:00.658Z,990.52
2022-11-03T05:18:00.649Z,990.53
2022-11-03T05:19:00.638Z,990.50
2022-11-03T05:20:00.618Z,990.51
2022-11-03T05:21:00.667Z,990.52
2022-11-03T05:22:00.594Z,990.56
2022-11-03T05:23:00.606Z,990.46
2022-11-03T05:24:00.690Z,990.49
2022-11-03T05:25:00.596Z,990.48
2022-11-03T05:26:00.584Z,990.44
2022-11-03T05:27:00.554Z,990.43
2022-11-03T05:28:00.542Z,990.47
2022-11-03T05:29:00.531Z,990.45
2022-11-03T05:30:01.093Z,990.43
2022-11-03T05:31:00.521Z,990.43
2022-11-03T05:32:00.542Z,990.41
2022-11-03T05:33:00.499Z,990.45
2022-11-03T05:34:00.511Z,990.39
2022-11-03T05:35:00.515Z,990.40
2022-11-03T05:36:00.474Z,990.35
2022-11-03T05:37:00.486Z,990.45
2022-11-03T05:38:00.461Z,990.38
2022-11-03T05:39:00.453Z,990.36
2022-11-03T05:40:00.447Z,990.35
2022-11-03T05:41:00.418Z,990.29
2022-11-03T05:42:00.426Z,990.26
2022-11-03T05:43:00.414Z,990.27
2022-11-03T05:44:00.393Z,990.33
2022-11-03T05:45:00.393Z,990.28
2022-11-03T05:46:00.407Z,990.31
2022-11-03T05:47:03.162Z,990.28
2022-11-03T05:48:01.350Z,990.23
2022-11-03T05:49:00.430Z,990.22
2022-11-03T05:50:00.416Z,990.25
2022-11-03T05:51:00.337Z,990.22
2022-11-03T05:52:00.857Z,990.20
2022-11-03T05:53:00.341Z,990.22
2022-11-03T05:54:00.295Z,990.20
2022-11-03T05:55:00.287Z,990.22
2022-11-03T05:56:00.267Z,990.25
2022-11-03T05:57:00.255Z,990.21
2022-11-03T05:58:00.300Z,990.19
2022-11-03T05:59:00.264Z,990.18
2022-11-03T06:00:00.266Z,990.13
2022-11-03T06:01:00.234Z,990.19
2022-11-03T06:02:00.447Z,990.17
2022-11-03T06:03:00.391Z,990.25
2022-11-03T06:04:00.189Z,990.22
2022-11-03T06:05:00.187Z,990.23
2022-11-03T06:06:00.246Z,990.22
2022-11-03T06:07:00.165Z,990.22
2022-11-03T06:08:00.161Z,990.18
2022-11-03T06:09:00.153Z,990.17
2022-11-03T06:10:00.142Z,990.17
2022-11-03T06:11:00.139Z,990.18
2022-11-03T06:12:00.109Z,990.22
2022-11-03T06:13:00.118Z,990.13
2022-11-03T06:14:00.157Z,990.19
2022-11-03T06:15:00.085Z,990.15
2022-11-03T06:16:00.083Z,990.18
2022-11-03T06:17:00.052Z,990.17
2022-11-03T06:18:00.071Z,990.15
2022-11-03T06:19:00.064Z,990.17
2022-11-03T06:20:00.048Z,990.12
2022-11-03T06:21:00.010Z,990.13
2022-11-03T06:22:00.045Z,990.14
2022-11-03T06:23:00.015Z,990.13
2022-11-03T06:24:00.004Z,990.07
2022-11-03T06:24:59.975Z,990.10
2022-11-03T06:25:59.970Z,990.09
2022-11-03T06:26:59.980Z,990.07
2022-11-03T06:27:59.949Z,990.13
2022-11-03T06:28:59.985Z,990.16
2022-11-03T06:29:59.946Z,990.12
2022-11-03T06:30:59.923Z,990.10
2022-11-03T06:31:59.911Z,990.13
2022-11-03T06:32:59.911Z,990.08
2022-11-03T06:33:59.977Z,990.05
2022-11-03T06:34:59.885Z,990.07
2022-11-03T06:35:59.889Z,989.99
2022-11-03T06:36:59.863Z,990.07
2022-11-03T06:37:59.890Z,990.08
2022-11-03T06:38:59.886Z,990.12
2022-11-03T06:39:59.843Z,990.10
2022-11-03T06:40:59.834Z,990.09
2022-11-03T06:41:59.829Z,990.11
2022-11-03T06:42:59.820Z,990.14
2022-11-03T06:43:59.814Z,990.09
2022-11-03T06:44:59.817Z,990.13
2022-11-03T06:45:59.776Z,990.14
2022-11-03T06:46:59.876Z,990.14
2022-11-03T06:47:59.772Z,990.09
2022-11-03T06:48:59.773Z,990.13
2022-11-03T06:49:59.774Z,990.13
2022-11-03T06:50:59.751Z,990.13
2022-11-03T06:51:59.729Z,990.13
2022-11-03T06:52:59.714Z,990.19
2022-11-03T06:53:59.710Z,990.17
2022-11-03T06:54:59.734Z,990.11
2022-11-03T06:55:59.708Z,990.09
2022-11-03T06:56:59.682Z,989.97
2022-11-03T06:57:59.700Z,989.99
2022-11-03T06:58:59.693Z,989.92
2022-11-03T07:00:19.939Z,990.06
2022-11-03T07:01:03.709Z,990.04
2022-11-03T07:02:00.707Z,990.00
2022-11-03T07:02:59.630Z,989.97
2022-11-03T07:03:59.634Z,989.95
2022-11-03T07:04:59.602Z,989.99
2022-11-03T07:05:59.596Z,989.94
2022-11-03T07:06:59.585Z,989.94
2022-11-03T07:07:59.631Z,990.00
2022-11-03T07:08:59.560Z,989.95
2022-11-03T07:09:59.580Z,990.05
2022-11-03T07:10:59.545Z,990.00
2022-11-03T07:11:59.546Z,989.97
2022-11-03T07:13:03.013Z,989.98
2022-11-03T07:14:00.537Z,989.92
2022-11-03T07:14:59.565Z,989.97
2022-11-03T07:15:59.498Z,989.98
2022-11-03T07:16:59.496Z,989.89
2022-11-03T07:17:59.471Z,989.88
2022-11-03T07:18:59.587Z,989.93
2022-11-03T07:19:59.507Z,989.88
2022-11-03T07:20:59.460Z,989.84
2022-11-03T07:21:59.463Z,989.88
2022-11-03T07:22:59.445Z,989.87
2022-11-03T07:23:59.412Z,989.82
2022-11-03T07:24:59.415Z,989.86
2022-11-03T07:25:59.416Z,989.80
2022-11-03T07:26:59.446Z,989.82
2022-11-03T07:27:59.402Z,989.74
2022-11-03T07:28:59.373Z,989.71
2022-11-03T07:29:59.385Z,989.73
2022-11-03T07:30:59.357Z,989.70
2022-11-03T07:31:59.341Z,989.66
2022-11-03T07:32:59.340Z,989.69
2022-11-03T07:33:59.322Z,989.74
2022-11-03T07:34:59.331Z,989.70
2022-11-03T07:36:16.130Z,989.65
2022-11-03T07:37:01.347Z,989.70
2022-11-03T07:37:59.271Z,989.68
2022-11-03T07:38:59.263Z,989.63
2022-11-03T07:39:59.297Z,989.61
2022-11-03T07:40:59.279Z,989.58
2022-11-03T07:41:59.253Z,989.53
2022-11-03T07:42:59.230Z,989.54
2022-11-03T07:43:59.253Z,989.56
2022-11-03T07:44:59.206Z,989.56
2022-11-03T07:45:59.277Z,989.52
2022-11-03T07:46:59.196Z,989.48
2022-11-03T07:48:01.840Z,989.45
2022-11-03T07:49:01.176Z,989.48
2022-11-03T07:49:59.168Z,989.45
2022-11-03T07:50:59.164Z,989.42
2022-11-03T07:51:59.151Z,989.39
2022-11-03T07:52:59.147Z,989.37
2022-11-03T07:53:59.139Z,989.37
2022-11-03T07:54:59.105Z,989.32
2022-11-03T07:55:59.202Z,989.30
2022-11-03T07:56:59.109Z,989.35
2022-11-03T07:57:59.086Z,989.27
2022-11-03T07:58:59.071Z,989.32
2022-11-03T07:59:59.150Z,989.24
2022-11-03T08:00:59.061Z,989.18
2022-11-03T08:01:59.294Z,989.20
2022-11-03T08:02:59.060Z,989.18
2022-11-03T08:03:59.050Z,989.17
2022-11-03T08:04:59.023Z,989.18
2022-11-03T08:05:58.993Z,989.17
2022-11-03T08:06:59.014Z,989.10
2022-11-03T08:07:58.984Z,989.16
2022-11-03T08:08:59.010Z,989.16
2022-11-03T08:09:58.961Z,989.14
2022-11-03T08:10:59.046Z,989.13
2022-11-03T08:11:58.954Z,989.07
2022-11-03T08:12:58.957Z,989.08
2022-11-03T08:13:58.928Z,989.09
2022-11-03T08:14:58.930Z,988.92
2022-11-03T08:15:58.903Z,989.00
2022-11-03T08:16:58.892Z,989.02
2022-11-03T08:17:58.914Z,989.00
2022-11-03T08:18:58.892Z,988.98
2022-11-03T08:19:58.877Z,989.03
2022-11-03T08:20:59.855Z,988.96
2022-11-03T08:21:58.846Z,989.04
2022-11-03T08:23:23.970Z,988.88
2022-11-03T08:24:00.856Z,988.93
2022-11-03T08:24:58.827Z,988.91
2022-11-03T08:25:58.817Z,988.84
2022-11-03T08:26:58.830Z,988.85
2022-11-03T08:27:58.782Z,988.79
2022-11-03T08:29:13.191Z,988.79
2022-11-03T08:29:58.775Z,988.81
2022-11-03T08:31:01.893Z,988.78
2022-11-03T08:31:59.772Z,988.77
2022-11-03T08:32:58.736Z,988.71
2022-11-03T08:33:58.791Z,988.73
2022-11-03T08:34:58.711Z,988.70
2022-11-03T08:35:58.705Z,988.68
2022-11-03T08:36:58.730Z,988.62
2022-11-03T08:37:58.726Z,988.63
2022-11-03T08:38:58.692Z,988.64
2022-11-03T08:39:58.671Z,988.58
2022-11-03T08:40:58.743Z,988.49
2022-11-03T08:41:58.679Z,988.52
2022-11-03T08:42:58.640Z,988.48
2022-11-03T08:43:58.661Z,988.47
2022-11-03T08:44:58.631Z,988.46
2022-11-03T08:46:06.623Z,988.48
2022-11-03T08:47:00.610Z,988.42
2022-11-03T08:47:58.591Z,988.40
2022-11-03T08:48:58.594Z,988.40
2022-11-03T08:49:58.606Z,988.34
2022-11-03T08:50:58.739Z,988.35
2022-11-03T08:51:58.574Z,988.34
2022-11-03T08:52:58.549Z,988.32
2022-11-03T08:53:58.546Z,988.31
2022-11-03T08:54:58.551Z,988.26
2022-11-03T08:55:58.521Z,988.23
2022-11-03T08:56:58.517Z,988.17
2022-11-03T08:57:58.525Z,988.26
2022-11-03T08:58:58.506Z,988.20
2022-11-03T08:59:58.479Z,988.17
2022-11-03T09:00:58.476Z,988.17
2022-11-03T09:01:58.543Z,988.10
2022-11-03T09:02:58.514Z,988.11
2022-11-03T09:03:58.575Z,988.03
2022-11-03T09:04:58.417Z,988.09
2022-11-03T09:05:58.424Z,988.05
2022-11-03T09:06:58.428Z,987.99
2022-11-03T09:11:00.765Z,987.94
2022-11-03T09:11:58.423Z,987.84
2022-11-03T09:12:58.354Z,987.86
2022-11-03T09:13:58.385Z,987.89
2022-11-03T09:14:58.420Z,987.85
2022-11-03T09:15:58.330Z,987.81
2022-11-03T09:16:58.370Z,987.79
2022-11-03T09:17:58.352Z,987.73
2022-11-03T09:18:58.282Z,987.68
2022-11-03T09:19:58.290Z,987.76
2022-11-03T09:20:58.279Z,987.68
2022-11-03T09:21:58.375Z,987.63
2022-11-03T09:22:58.263Z,987.63
2022-11-03T09:23:58.248Z,987.59
2022-11-03T09:24:58.293Z,987.58
2022-11-03T09:25:58.213Z,987.57
2022-11-03T09:27:02.159Z,987.58
2022-11-03T09:27:59.200Z,987.58
2022-11-03T09:28:58.253Z,987.50
2022-11-03T09:30:12.752Z,987.52
2022-11-03T09:31:00.184Z,987.52
2022-11-03T09:31:58.195Z,987.49
2022-11-03T09:32:58.145Z,987.48
2022-11-03T09:33:58.160Z,987.40
2022-11-03T09:34:58.127Z,987.36
2022-11-03T09:35:58.119Z,987.39
2022-11-03T09:36:58.112Z,987.42
2022-11-03T09:37:58.099Z,987.35
2022-11-03T09:38:58.112Z,987.37
2022-11-03T09:39:58.085Z,987.33
2022-11-03T09:40:58.072Z,987.20
2022-11-03T09:41:59.344Z,987.19
2022-11-03T09:42:59.087Z,987.15
2022-11-03T09:43:58.097Z,987.13
2022-11-03T09:44:58.034Z,987.12
2022-11-03T09:45:58.073Z,987.13
2022-11-03T09:46:58.629Z,987.15
2022-11-03T09:47:58.991Z,987.14
2022-11-03T09:48:58.017Z,987.14
2022-11-03T09:49:57.988Z,987.05
2022-11-03T09:50:57.978Z,987.05
2022-11-03T09:51:57.963Z,987.06
2022-11-03T09:52:58.031Z,987.11
2022-11-03T09:53:57.972Z,987.10
2022-11-03T09:54:57.931Z,987.09
2022-11-03T09:55:57.924Z,987.04
2022-11-03T09:56:57.911Z,987.05
2022-11-03T09:57:57.893Z,987.05
2022-11-03T09:58:57.944Z,987.02
2022-11-03T09:59:57.934Z,987.00
2022-11-03T10:00:57.990Z,987.05
2022-11-03T10:01:58.002Z,987.01
2022-11-03T10:02:57.845Z,987.03
2022-11-03T10:03:58.861Z,987.04
2022-11-03T10:04:57.870Z,987.02
2022-11-03T10:05:57.825Z,987.01
2022-11-03T10:06:57.829Z,987.04
2022-11-03T10:07:57.849Z,986.97
2022-11-03T10:08:57.796Z,986.98
2022-11-03T10:09:57.795Z,986.97
2022-11-03T10:10:57.781Z,986.91
2022-11-03T10:11:57.834Z,986.90
2022-11-03T10:12:57.804Z,986.88
2022-11-03T10:13:57.747Z,986.82
2022-11-03T10:14:57.736Z,986.90
2022-11-03T10:15:57.729Z,986.89
2022-11-03T10:16:57.729Z,986.90
2022-11-03T10:17:57.716Z,986.88
2022-11-03T10:18:57.696Z,987.02
2022-11-03T10:19:57.685Z,986.94
2022-11-03T10:20:57.693Z,986.86
2022-11-03T10:21:57.667Z,986.85
2022-11-03T10:22:57.691Z,986.74
2022-11-03T10:23:57.684Z,986.81
2022-11-03T10:24:57.645Z,986.74
2022-11-03T10:25:57.626Z,986.71
2022-11-03T10:26:57.610Z,986.67
2022-11-03T10:27:57.636Z,986.69
2022-11-03T10:28:57.619Z,986.65
2022-11-03T10:29:58.114Z,986.65
2022-11-03T10:31:11.392Z,986.66
2022-11-03T10:31:59.561Z,986.65
2022-11-03T10:32:57.577Z,986.53
2022-11-03T10:33:57.545Z,986.55
2022-11-03T10:34:57.544Z,986.52
2022-11-03T10:35:57.523Z,986.47
2022-11-03T10:36:57.518Z,986.41
2022-11-03T10:37:57.537Z,986.49
2022-11-03T10:38:57.493Z,986.40
2022-11-03T10:39:57.491Z,986.38
2022-11-03T10:40:57.480Z,986.38
2022-11-03T10:41:57.494Z,986.34
2022-11-03T10:42:57.481Z,986.30
2022-11-03T10:43:57.455Z,986.30
2022-11-03T10:44:57.439Z,986.23
2022-11-03T10:45:57.431Z,986.18
2022-11-03T10:46:57.439Z,986.18
2022-11-03T10:48:00.543Z,986.09
2022-11-03T10:48:58.428Z,986.08
2022-11-03T10:49:57.419Z,986.05
2022-11-03T10:50:57.375Z,985.96
2022-11-03T10:51:57.388Z,986.06
2022-11-03T10:52:57.373Z,986.02
2022-11-03T10:53:57.355Z,986.01
2022-11-03T10:54:57.359Z,985.93
2022-11-03T10:55:57.341Z,985.88
2022-11-03T10:56:57.323Z,985.88
2022-11-03T10:57:57.315Z,985.83
2022-11-03T10:59:57.317Z,985.80
2022-11-03T11:00:57.342Z,985.70
2022-11-03T11:01:57.373Z,985.75
2022-11-03T11:02:57.267Z,985.68
2022-11-03T11:03:57.294Z,985.65
2022-11-03T11:04:57.273Z,985.65
2022-11-03T11:05:57.248Z,985.59
2022-11-03T11:06:57.230Z,985.60
2022-11-03T11:07:57.243Z,985.52
2022-11-03T11:08:59.921Z,985.52
2022-11-03T11:09:57.211Z,985.48
2022-11-03T11:10:57.243Z,985.47
2022-11-03T11:11:57.176Z,985.41
2022-11-03T11:12:57.207Z,985.39
2022-11-03T11:13:57.244Z,985.31
2022-11-03T11:14:57.153Z,985.37
2022-11-03T11:15:57.147Z,985.23
2022-11-03T11:16:57.125Z,985.17
2022-11-03T11:17:57.176Z,985.18
2022-11-03T11:18:57.136Z,985.18
2022-11-03T11:19:57.102Z,985.28
2022-11-03T11:20:57.088Z,985.25
2022-11-03T11:21:57.072Z,985.16
2022-11-03T11:22:57.068Z,985.12
2022-11-03T11:23:57.070Z,985.09
2022-11-03T11:24:57.046Z,985.03
2022-11-03T11:25:57.055Z,984.98
2022-11-03T11:26:57.055Z,984.91
2022-11-03T11:27:58.267Z,984.89
2022-11-03T11:28:58.024Z,984.86
2022-11-03T11:29:56.992Z,984.79
2022-11-03T11:30:57.990Z,984.80
2022-11-03T11:31:56.974Z,984.84
2022-11-03T11:32:56.974Z,984.86
2022-11-03T11:33:56.976Z,984.78
2022-11-03T11:34:56.971Z,984.79
2022-11-03T11:35:59.199Z,984.74
2022-11-03T11:36:57.931Z,984.78
2022-11-03T11:37:56.920Z,984.78
2022-11-03T11:38:56.951Z,984.75
2022-11-03T11:39:56.913Z,984.69
2022-11-03T11:40:56.938Z,984.74
2022-11-03T11:41:56.902Z,984.70
2022-11-03T11:42:56.886Z,984.69
2022-11-03T11:43:56.868Z,984.65
2022-11-03T11:44:56.858Z,984.68
2022-11-03T11:45:56.911Z,984.75
2022-11-03T11:46:56.830Z,984.69
2022-11-03T11:47:56.816Z,984.66
2022-11-03T11:48:56.873Z,984.66
2022-11-03T11:49:56.806Z,984.65
2022-11-03T11:50:56.861Z,984.54
2022-11-03T11:51:56.779Z,984.51
2022-11-03T11:52:56.777Z,984.51
2022-11-03T11:54:16.458Z,984.50
2022-11-03T11:54:56.749Z,984.47
2022-11-03T11:55:56.737Z,984.46
2022-11-03T11:56:56.731Z,984.40
2022-11-03T11:57:56.733Z,984.41
2022-11-03T11:58:56.724Z,984.34
2022-11-03T11:59:56.696Z,984.27
2022-11-03T12:00:56.690Z,984.24
2022-11-03T12:01:56.893Z,984.26
2022-11-03T12:02:56.669Z,984.25
2022-11-03T12:03:56.881Z,984.34
2022-11-03T12:04:56.683Z,984.29
2022-11-03T12:05:56.662Z,984.25
2022-11-03T12:06:56.682Z,984.19
2022-11-03T12:07:56.693Z,984.11
2022-11-03T12:08:56.625Z,984.13
2022-11-03T12:09:56.600Z,984.06
2022-11-03T12:10:56.688Z,984.02
2022-11-03T12:11:57.699Z,983.97
2022-11-03T12:12:56.705Z,984.03
2022-11-03T12:13:56.562Z,983.98
2022-11-03T12:14:56.548Z,984.00
2022-11-03T12:15:56.534Z,984.02
2022-11-03T12:16:57.623Z,984.01
2022-11-03T12:17:56.549Z,983.77
2022-11-03T12:18:56.526Z,983.82
2022-11-03T12:19:56.538Z,983.71
2022-11-03T12:20:56.561Z,983.63
2022-11-03T12:21:56.505Z,983.60
2022-11-03T12:22:56.467Z,983.65
2022-11-03T12:23:56.458Z,983.56
2022-11-03T12:24:56.482Z,983.58
2022-11-03T12:25:56.440Z,983.61
2022-11-03T12:26:56.430Z,983.62
2022-11-03T12:27:56.436Z,983.60
2022-11-03T12:28:56.464Z,983.58
2022-11-03T12:29:56.395Z,983.54
2022-11-03T12:30:56.415Z,983.51
2022-11-03T12:31:56.390Z,983.41
2022-11-03T12:32:56.377Z,983.45